Tolna, North Dakota
Current Conditions -  °F | °C
As of 1:55 PM on Thursday 30 Oct 2014 (Local Time) from KDVL Reporting Station
Overcast Overcast  
Wind Chill: 19°   Ceiling: 2500
Heat Index: 32°   Visibility: 10mi
Dew Point: 18°   Wind: 22mph
Humidity: 55%   Direction: 20°NNE
Pressure: 30.38"   Gusts: 30mph
Location:  47.83°N, 98.44°W
Report Text: KDVL 301855Z AUTO 02019G26KT 10SM OVC025 00/M08 A3038 RMK AO1
Loading
Personal Weather Stations






























Interactive Weather Map
Tropical Storm Tracking
New forecast layout! Learn more

10-Day Weather Forecast

Advertisements
Track Severe Weather on mobile